Time;durP1;ratioP1;P1;durP2;ratioP2;P2;SDS_P1;SDS_P2;PMS_P1;PMS_P2;Temp;Humidity;BMP_temperature;BMP_pressure;BME280_temperature;BME280_humidity;BME280_pressure;Samples;Min_cycle;Max_cycle;Signal;HPM_P1;HPM_P2
2022/02/04 00:07:42;;;;;;;32.65;19.73;;;;;;;0.33;73.68;100289.55;1743713;82;21713;-64
2022/02/04 00:20:45;;;;;;;30.72;18.80;;;;;;;0.27;73.80;100298.56;1743441;82;21200;-63
2022/02/04 00:23:44;;;;;;;30.60;18.00;;;;;;;0.29;73.77;100312.27;1743891;81;21318;-64
2022/02/04 00:26:58;;;;;;;30.65;18.10;;;;;;;0.33;73.59;100335.31;1737251;80;21406;-63
2022/02/04 00:30:05;;;;;;;30.12;18.80;;;;;;;0.33;73.39;100312.42;1735005;82;21428;-64
2022/02/04 00:33:08;;;;;;;28.00;16.87;;;;;;;0.36;73.23;100317.58;1735114;82;21350;-63
2022/02/04 00:36:31;;;;;;;28.55;17.12;;;;;;;0.40;73.13;100323.61;1734865;82;21377;-63
2022/02/04 00:39:38;;;;;;;27.48;17.50;;;;;;;0.42;72.94;100314.42;1735112;82;21949;-63
2022/02/04 00:42:39;;;;;;;27.48;18.10;;;;;;;0.41;72.64;100304.64;1734924;82;21188;-63
2022/02/04 00:45:53;;;;;;;29.25;18.48;;;;;;;0.40;72.48;100308.80;1735394;82;21414;-63
2022/02/04 00:49:05;;;;;;;25.15;15.10;;;;;;;0.38;72.40;100298.63;1734397;82;21326;-63
2022/02/04 00:52:33;;;;;;;28.87;17.07;;;;;;;0.41;72.43;100307.34;1734979;82;21289;-64
2022/02/04 00:55:35;;;;;;;;;;;;;;;0.43;72.28;100312.61;1737823;82;21310;-64
2022/02/04 01:29:02;;;;;;;29.18;17.20;;;;;;;0.13;72.52;100331.84;1704822;83;21240;-63
2022/02/04 01:32:09;;;;;;;28.30;16.50;;;;;;;0.03;72.61;100333.50;1704312;83;21247;-63
2022/02/04 01:35:15;;;;;;;27.32;15.65;;;;;;;-0.07;72.81;100336.47;1676950;85;21402;-63
2022/02/04 01:38:23;;;;;;;30.02;18.00;;;;;;;-0.14;73.14;100332.48;1676968;85;21287;-63
2022/02/04 01:41:30;;;;;;;28.27;17.27;;;;;;;-0.20;73.40;100338.31;1676933;85;21430;-63
2022/02/04 01:44:36;;;;;;;25.23;16.23;;;;;;;-0.21;73.60;100344.16;1676887;85;21381;-64
2022/02/04 01:47:41;;;;;;;30.50;17.30;;;;;;;-0.21;73.77;100344.16;1676962;85;21212;-64
2022/02/04 01:50:48;;;;;;;28.62;16.82;;;;;;;-0.20;73.87;100349.06;1676982;85;21413;-64
2022/02/04 01:53:54;;;;;;;26.50;16.07;;;;;;;-0.12;73.93;100349.39;1676948;85;21204;-64
2022/02/04 01:57:02;;;;;;;28.80;16.12;;;;;;;-0.11;73.65;100337.17;1676762;85;21331;-64
2022/02/04 02:00:08;;;;;;;28.35;16.37;;;;;;;-0.12;73.61;100342.19;1676724;85;21448;-64
2022/02/04 02:03:14;;;;;;;27.73;15.10;;;;;;;-0.14;73.43;100347.28;1668562;85;21330;-63
2022/02/04 02:06:20;;;;;;;25.90;15.45;;;;;;;-0.24;73.37;100348.92;1649528;87;21839;-65
2022/02/04 02:09:34;;;;;;;29.02;17.12;;;;;;;-0.27;73.52;100341.92;1634233;86;21243;-65
2022/02/04 02:12:42;;;;;;;26.57;16.57;;;;;;;-0.30;73.64;100346.64;1633927;87;21223;-64
2022/02/04 02:33:20;;;;;;;26.20;15.93;;;;;;;-0.16;73.77;100350.08;1721697;83;21358;-64
2022/02/04 02:36:37;;;;;;;27.10;16.32;;;;;;;-0.06;73.59;100356.54;1721597;83;21342;-64
2022/02/04 02:48:59;;;;;;;24.18;14.13;;;;;;;0.14;72.70;100356.94;1721634;83;21325;-64
2022/02/04 03:01:08;;;;;;;26.02;15.48;;;;;;;0.00;72.54;100364.16;1721499;83;21753;-64
2022/02/04 03:04:16;;;;;;;26.35;16.05;;;;;;;0.05;72.59;100375.94;1721587;82;21238;-65
2022/02/04 03:07:23;;;;;;;25.02;15.40;;;;;;;0.06;72.48;100366.91;1722061;82;21388;-65
2022/02/04 03:10:30;;;;;;;23.05;14.98;;;;;;;0.09;72.49;100378.80;1721702;82;21503;-63
2022/02/04 03:13:36;;;;;;;26.02;15.28;;;;;;;0.10;72.38;100378.30;1721518;83;21199;-63
2022/02/04 03:16:44;;;;;;;22.15;14.73;;;;;;;0.09;72.20;100370.73;1721560;82;21341;-64
2022/02/04 03:19:54;;;;;;;25.80;14.70;;;;;;;0.10;72.24;100364.36;1721510;82;21385;-64
2022/02/04 03:22:58;;;;;;;22.35;13.43;;;;;;;0.10;72.01;100368.40;1721701;82;21352;-64
2022/02/04 03:26:18;;;;;;;21.17;14.40;;;;;;;0.11;71.94;100375.52;1721466;83;21329;-65
2022/02/04 03:29:24;;;;;;;24.15;14.60;;;;;;;0.07;71.78;100381.20;1716586;82;21953;-65
2022/02/04 03:32:26;;;;;;;22.50;13.22;;;;;;;0.05;71.80;100378.63;1708885;83;21212;-66
2022/02/04 03:35:32;;;;;;;23.90;14.35;;;;;;;0.03;71.80;100373.87;1708501;82;21268;-66
2022/02/04 03:38:37;;;;;;;22.10;14.10;;;;;;;0.05;71.82;100374.59;1708708;83;21338;-65
2022/02/04 03:41:43;;;;;;;27.52;15.88;;;;;;;0.05;71.76;100365.17;1708471;83;21176;-65
2022/02/04 03:44:49;;;;;;;21.75;13.85;;;;;;;0.02;71.69;100378.84;1708620;82;21974;-65
2022/02/04 03:47:56;;;;;;;22.58;14.53;;;;;;;0.00;71.60;100374.09;1708468;84;21548;-65
2022/02/04 03:51:02;;;;;;;23.67;14.33;;;;;;;0.00;71.69;100375.44;1708070;83;21227;-65
2022/02/04 03:54:07;;;;;;;24.65;14.33;;;;;;;0.03;71.66;100384.12;1708473;82;21338;-64
2022/02/04 03:57:12;;;;;;;23.92;14.30;;;;;;;0.07;71.47;100390.15;1708424;83;21717;-65
2022/02/04 04:00:21;;;;;;;22.70;14.35;;;;;;;0.01;71.22;100386.55;1707944;82;21919;-65
2022/02/04 04:03:28;;;;;;;21.07;13.55;;;;;;;-0.05;71.06;100389.19;1708663;83;21195;-65
2022/02/04 04:06:34;;;;;;;22.15;13.28;;;;;;;-0.13;71.05;100397.44;1708442;83;21234;-65
2022/02/04 04:09:46;;;;;;;20.35;13.00;;;;;;;-0.20;71.22;100392.97;1708500;82;21298;-65
2022/02/04 04:12:50;;;;;;;23.90;13.43;;;;;;;-0.19;71.46;100397.88;1708544;84;21365;-65
2022/02/04 04:15:57;;;;;;;21.87;13.10;;;;;;;-0.17;71.30;100399.48;1708280;82;21263;-65
2022/02/04 04:19:03;;;;;;;21.75;12.93;;;;;;;-0.26;71.26;100389.85;1708542;82;21349;-65
2022/02/04 04:22:11;;;;;;;23.25;13.83;;;;;;;-0.30;71.40;100385.64;1708235;84;21367;-66
2022/02/04 04:25:17;;;;;;;21.33;13.00;;;;;;;-0.33;71.49;100387.20;1699634;83;21377;-63
2022/02/04 04:28:23;;;;;;;20.75;13.18;;;;;;;-0.31;71.70;100390.66;1708847;83;22037;-64
2022/02/04 04:31:29;;;;;;;23.42;13.95;;;;;;;-0.33;71.54;100387.20;1720826;80;21708;-65
2022/02/04 04:34:34;;;;;;;20.05;13.28;;;;;;;-0.30;71.87;100386.98;1721291;82;21246;-65
2022/02/04 04:37:48;;;;;;;20.48;12.93;;;;;;;-0.23;71.78;100388.29;1722367;82;21211;-65
2022/02/04 04:41:03;;;;;;;20.65;13.72;;;;;;;-0.20;71.70;100394.32;1721609;82;21795;-64
2022/02/04 05:25:58;;;;;;;20.90;13.38;;;;;;;-0.25;71.54;100397.81;1721719;83;21822;-64
2022/02/04 05:31:02;;;;;;;22.77;13.83;;;;;;;-0.39;71.66;100448.13;1719559;81;21361;-65
2022/02/04 05:34:07;;;;;;;24.43;13.50;;;;;;;-0.32;71.85;100452.14;1708172;82;21235;-64
2022/02/04 05:37:14;;;;;;;22.75;13.68;;;;;;;-0.34;71.49;100454.06;1708036;84;21401;-65
2022/02/04 05:40:25;;;;;;;24.55;14.07;;;;;;;-0.44;71.52;100454.30;1711471;82;21330;-65
2022/02/04 05:43:32;;;;;;;21.93;13.65;;;;;;;-0.47;71.78;100450.48;1707826;83;21191;-65
2022/02/04 05:46:54;;;;;;;22.58;15.00;;;;;;;-0.47;71.86;100458.08;1718393;82;21269;-65
2022/02/04 05:53:17;;;;;;;20.25;12.78;;;;;;;-0.44;72.23;100449.80;1707186;84;21234;-65
2022/02/04 06:03:26;;;;;;;20.50;13.08;;;;;;;-0.32;71.68;100461.55;1710856;82;21805;-65
2022/02/04 06:23:41;;;;;;;23.95;14.40;;;;;;;-0.17;70.68;100480.17;1723270;82;21231;-65
2022/02/04 06:26:52;;;;;;;26.37;15.00;;;;;;;-0.23;70.66;100479.26;1730806;82;21214;-63
2022/02/04 06:30:03;;;;;;;22.93;14.40;;;;;;;-0.26;70.67;100472.75;1735530;82;21235;-64
2022/02/04 06:33:11;;;;;;;22.50;14.50;;;;;;;-0.22;70.86;100493.07;1739431;81;21220;-64
2022/02/04 06:36:16;;;;;;;22.22;13.38;;;;;;;-0.18;70.76;100484.31;1722176;83;21753;-63
2022/02/04 06:39:22;;;;;;;22.82;12.40;;;;;;;-0.08;70.75;100492.98;1712569;82;21548;-63
2022/02/04 06:42:34;;;;;;;20.05;13.30;;;;;;;-0.03;70.42;100486.80;1712738;83;21179;-65
2022/02/04 06:45:40;;;;;;;20.90;12.95;;;;;;;-0.01;70.08;100490.73;1715086;82;21231;-65
2022/02/04 06:48:46;;;;;;;22.25;13.18;;;;;;;-0.04;69.84;100486.91;1742666;81;21180;-64
2022/02/04 06:51:52;;;;;;;19.02;12.60;;;;;;;-0.06;69.75;100483.45;1714471;82;21239;-65
2022/02/04 06:54:58;;;;;;;22.90;14.18;;;;;;;0.00;69.75;100480.36;1742303;82;21365;-64
2022/02/04 06:58:04;;;;;;;18.40;12.50;;;;;;;0.02;69.40;100491.86;1743496;81;21804;-65
2022/02/04 07:01:09;;;;;;;20.02;12.25;;;;;;;0.04;69.26;100479.16;1733132;82;21309;-65
2022/02/04 07:04:16;;;;;;;19.05;13.22;;;;;;;0.08;69.05;100477.97;1743599;81;21364;-65
2022/02/04 07:07:22;;;;;;;22.50;12.35;;;;;;;0.05;68.70;100484.08;1730439;81;22068;-65
2022/02/04 07:10:52;;;;;;;23.15;13.70;;;;;;;0.03;68.84;100483.31;1726492;82;21243;-64
2022/02/04 07:14:01;;;;;;;24.25;15.70;;;;;;;0.08;68.75;100480.66;1712239;82;21270;-65
2022/02/04 07:20:01;;;;;;;53.10;35.88;;;;;;;0.29;68.82;100477.81;1739441;81;21195;-65
2022/02/04 07:23:07;;;;;;;20.85;13.88;;;;;;;0.48;68.33;100478.22;1718682;81;21200;-65
2022/02/04 07:26:13;;;;;;;21.57;13.48;;;;;;;0.56;67.79;100475.84;1733898;82;21242;-64
2022/02/04 07:29:20;;;;;;;18.98;13.05;;;;;;;0.63;67.52;100479.82;1742116;81;21196;-65
2022/02/04 07:32:38;;;;;;;17.67;12.15;;;;;;;0.74;67.37;100480.38;1725845;82;21172;-67
2022/02/04 07:40:53;;;;;;;19.45;13.35;;;;;;;0.75;66.65;100491.52;1736257;81;21320;-69
2022/02/04 07:41:59;;;;;;;18.90;13.15;;;;;;;0.83;66.62;100487.30;1718503;82;21801;-64
2022/02/04 07:45:12;;;;;;;21.02;13.08;;;;;;;0.91;66.39;100493.00;1727441;82;21844;-65
2022/02/04 07:48:29;;;;;;;21.87;13.55;;;;;;;1.00;66.15;100486.92;1722691;82;21705;-67
2022/02/04 07:51:35;;;;;;;19.52;13.62;;;;;;;1.03;65.76;100488.03;1737525;82;21420;-65
2022/02/04 07:54:45;;;;;;;21.15;14.33;;;;;;;1.10;65.59;100490.66;1737541;81;21401;-65
2022/02/04 07:57:52;;;;;;;21.12;13.60;;;;;;;1.14;65.24;100490.80;1735219;82;21339;-65
2022/02/04 08:01:02;;;;;;;23.52;16.05;;;;;;;1.16;65.28;100494.72;1735711;82;21470;-64
2022/02/04 08:04:17;;;;;;;21.85;14.10;;;;;;;1.25;65.08;100490.02;1733787;81;21279;-64
2022/02/04 08:07:22;;;;;;;24.12;14.68;;;;;;;1.23;64.52;100496.88;1706135;82;21322;-64
2022/02/04 08:10:34;;;;;;;19.70;13.13;;;;;;;1.27;64.52;100492.09;1706685;82;21284;-64
2022/02/04 08:17:07;;;;;;;25.40;16.82;;;;;;;1.23;64.15;100487.44;1696214;83;21197;-64
2022/02/04 08:23:32;;;;;;;;;;;;;;;1.42;63.93;100492.30;1709393;83;21201;-65
2022/02/04 08:26:33;;;;;;;21.82;13.48;;;;;;;1.40;63.80;100493.77;1706953;83;20577;-64
2022/02/04 08:53:45;;;;;;;20.60;12.78;;;;;;;1.35;62.87;100503.16;1700238;84;21730;-65
2022/02/04 08:59:58;;;;;;;20.43;14.05;;;;;;;1.33;63.03;100497.89;1672092;84;21224;-65
2022/02/04 09:03:02;;;;;;;19.85;13.45;;;;;;;1.31;62.96;100493.59;1657519;86;21280;-65
2022/02/04 09:06:12;;;;;;;20.60;13.40;;;;;;;1.32;63.02;100492.61;1657222;86;21330;-65
2022/02/04 09:09:17;;;;;;;20.97;14.30;;;;;;;1.38;63.05;100495.71;1673911;85;21267;-66
2022/02/04 09:16:53;;;;;;;19.57;13.00;;;;;;;1.44;62.99;100497.10;1673134;85;21829;-66
2022/02/04 09:19:00;;;;;;;19.07;13.43;;;;;;;1.44;62.68;100493.89;1673297;85;21275;-66
2022/02/04 09:25:05;;;;;;;19.62;13.43;;;;;;;1.48;62.61;100488.66;1673206;85;21244;-66
2022/02/04 09:28:10;;;;;;;18.75;13.10;;;;;;;1.57;62.72;100483.55;1681175;84;21358;-66
2022/02/04 09:31:18;;;;;;;17.57;12.85;;;;;;;1.67;62.65;100473.75;1688376;83;21358;-66
2022/02/04 09:34:26;;;;;;;24.75;12.58;;;;;;;1.84;62.55;100485.48;1701393;83;21824;-66
2022/02/04 09:37:33;;;;;;;16.50;12.15;;;;;;;1.99;62.48;100482.45;1735770;82;21526;-65
2022/02/04 09:40:41;;;;;;;21.45;12.93;;;;;;;2.11;61.66;100473.89;1735823;82;21188;-66
2022/02/04 09:43:47;;;;;;;18.42;11.85;;;;;;;2.06;61.32;100474.22;1735593;81;21326;-66
2022/02/04 09:46:52;;;;;;;19.60;12.82;;;;;;;2.03;61.06;100477.68;1736947;82;21326;-66
2022/02/04 09:50:00;;;;;;;21.05;14.10;;;;;;;1.94;61.09;100473.84;1737060;81;22060;-66
2022/02/04 10:11:03;;;;;;;17.23;12.00;;;;;;;2.09;60.48;100487.99;1707028;82;21227;-66
2022/02/04 10:14:00;;;;;;;20.32;13.25;;;;;;;1.90;60.22;100482.30;1706756;82;21761;-66
2022/02/04 10:17:13;;;;;;;21.68;14.28;;;;;;;1.79;60.78;100468.30;1706605;84;21687;-65
2022/02/04 10:20:17;;;;;;;24.15;14.55;;;;;;;1.85;61.30;100479.97;1706831;82;21212;-66
2022/02/04 10:23:22;;;;;;;19.87;13.05;;;;;;;2.05;61.22;100470.30;1706731;84;21247;-65
2022/02/04 10:26:27;;;;;;;18.57;12.75;;;;;;;2.16;60.71;100479.77;1706678;84;21188;-65
2022/02/04 10:29:32;;;;;;;21.57;12.25;;;;;;;2.04;60.12;100482.09;1707228;82;21270;-68
2022/02/04 10:32:47;;;;;;;19.20;12.18;;;;;;;1.85;60.18;100475.05;1707056;84;21861;-67
2022/02/04 10:35:53;;;;;;;19.17;12.18;;;;;;;1.75;60.59;100479.42;1707191;82;21267;-66
2022/02/04 10:39:00;;;;;;;23.07;14.90;;;;;;;1.78;60.86;100477.35;1707089;82;21195;-65
2022/02/04 10:42:55;;;;;;;22.52;14.55;;;;;;;1.78;60.89;100481.88;1709705;83;21353;-67
2022/02/04 10:45:55;;;;;;;18.12;12.28;;;;;;;1.89;61.15;100486.83;1697421;83;21266;-66
2022/02/04 10:49:11;;;;;;;18.27;11.88;;;;;;;2.04;60.85;100478.91;1708854;82;21214;-66
2022/02/04 10:52:28;;;;;;;17.57;12.30;;;;;;;1.97;60.22;100484.87;1712265;82;22219;-65
2022/02/04 10:55:43;;;;;;;17.95;10.82;;;;;;;1.88;60.43;100478.85;1735857;82;21232;-67
2022/02/04 10:59:02;;;;;;;21.90;13.90;;;;;;;1.88;60.38;100482.42;1735632;82;21204;-66
2022/02/04 11:05:25;;;;;;;16.80;11.12;;;;;;;1.85;60.54;100478.61;1736240;81;21271;-66
2022/02/04 11:30:50;;;;;;;15.78;11.05;;;;;;;1.30;61.09;100470.31;1717888;82;21208;-66
2022/02/04 11:35:30;;;;;;;18.75;11.03;;;;;;;1.57;61.58;100460.11;1697286;82;21225;-65
2022/02/04 11:49:33;;;;;;;22.10;12.98;;;;;;;1.24;61.54;100472.97;1733205;82;21447;-66
2022/02/04 11:52:08;;;;;;;16.30;11.08;;;;;;;1.15;61.92;100465.58;1737677;81;21195;-66
2022/02/04 11:55:25;;;;;;;17.32;10.98;;;;;;;1.18;62.12;100464.00;1734467;81;21227;-67
2022/02/04 11:58:56;;;;;;;18.77;12.25;;;;;;;1.23;62.07;100470.39;1728414;81;21741;-66
2022/02/04 12:02:04;;;;;;;17.42;12.10;;;;;;;1.33;62.08;100472.78;1705505;83;21728;-68
2022/02/04 12:05:26;;;;;;;19.57;12.73;;;;;;;1.38;61.73;100480.01;1713402;82;21784;-65
2022/02/04 12:08:31;;;;;;;19.57;12.50;;;;;;;1.30;61.54;100479.25;1717817;82;21275;-66
2022/02/04 12:11:40;;;;;;;19.25;12.63;;;;;;;1.24;61.61;100478.36;1733902;82;21744;-65
2022/02/04 12:14:45;;;;;;;21.57;13.62;;;;;;;1.20;61.87;100476.89;1723027;81;21835;-67
2022/02/04 12:17:52;;;;;;;18.50;13.28;;;;;;;1.21;62.07;100478.59;1713782;82;21263;-65
2022/02/04 12:21:04;;;;;;;19.92;13.40;;;;;;;1.28;62.29;100473.61;1739383;82;21769;-66
2022/02/04 12:24:09;;;;;;;17.40;12.37;;;;;;;1.26;62.11;100479.12;1725938;82;21323;-67
2022/02/04 12:27:45;;;;;;;16.75;11.05;;;;;;;1.18;62.15;100477.48;1725603;82;21191;-67
2022/02/04 12:30:46;;;;;;;19.55;12.78;;;;;;;1.09;62.31;100486.27;1726774;82;21243;-66
2022/02/04 12:33:54;;;;;;;19.87;13.15;;;;;;;0.92;62.40;100474.50;1735330;81;21208;-67
2022/02/04 12:37:04;;;;;;;16.90;11.70;;;;;;;0.86;62.73;100493.81;1743553;81;21675;-65
2022/02/04 12:40:11;;;;;;;15.28;11.15;;;;;;;0.82;62.58;100487.41;1737064;81;21192;-65
2022/02/04 12:43:17;;;;;;;17.05;11.97;;;;;;;0.73;62.67;100486.75;1737334;82;21366;-66
2022/02/04 12:46:25;;;;;;;20.17;12.93;;;;;;;0.70;63.03;100495.05;1736849;82;21705;-66
2022/02/04 12:49:41;;;;;;;15.72;11.43;;;;;;;0.76;63.36;100499.48;1724498;80;21267;-66
2022/02/04 12:52:50;;;;;;;16.75;10.23;;;;;;;0.78;63.27;100506.98;1707433;83;21195;-66
2022/02/04 12:56:21;;;;;;;16.82;10.48;;;;;;;0.69;62.94;100506.78;1708251;82;21836;-67
2022/02/04 13:13:14;;;;;;;17.10;11.80;;;;;;;0.22;63.23;100510.66;1659302;85;21543;-66
2022/02/04 13:16:38;;;;;;;17.42;11.40;;;;;;;0.12;63.21;100515.82;1742031;82;21384;-66
2022/02/04 13:19:44;;;;;;;17.65;11.50;;;;;;;0.04;63.52;100518.18;1717474;82;21577;-66
2022/02/04 13:22:50;;;;;;;17.20;11.38;;;;;;;0.00;63.66;100519.38;1738551;81;21247;-67
2022/02/04 13:25:59;;;;;;;16.57;11.25;;;;;;;-0.01;64.04;100522.54;1706982;82;21203;-69
2022/02/04 13:29:10;;;;;;;22.03;12.33;;;;;;;0.03;64.15;100536.14;1707275;82;21259;-65
2022/02/04 13:32:30;;;;;;;20.12;13.38;;;;;;;0.03;64.31;100538.47;1693950;83;21196;-67
2022/02/04 13:35:43;;;;;;;19.17;13.13;;;;;;;0.03;64.16;100528.58;1708025;82;21215;-67
2022/02/04 13:42:25;;;;;;;20.65;12.85;;;;;;;0.05;63.98;100530.66;1730640;81;21808;-70
2022/02/04 13:45:44;;;;;;;21.80;14.73;;;;;;;0.00;64.10;100548.47;1745505;80;22048;-66
2022/02/04 13:49:10;;;;;;;19.32;11.35;;;;;;;-0.03;64.26;100546.47;1717923;82;21172;-67
2022/02/04 13:52:20;;;;;;;27.05;16.12;;;;;;;-0.06;64.25;100545.33;1711896;83;21331;-69
2022/02/04 13:58:53;;;;;;;17.23;11.83;;;;;;;-0.06;64.50;100541.30;1697375;83;21271;-65
2022/02/04 14:01:57;;;;;;;21.20;13.18;;;;;;;-0.08;64.52;100545.94;1723257;83;21248;-68
2022/02/04 14:05:04;;;;;;;20.17;13.20;;;;;;;-0.07;64.51;100537.77;1728182;82;21769;-66
2022/02/04 14:08:17;;;;;;;20.77;13.60;;;;;;;0.00;64.27;100528.80;1728620;83;21182;-65
2022/02/04 14:11:21;;;;;;;18.82;14.03;;;;;;;0.03;64.29;100532.11;1730121;83;21247;-65
2022/02/04 14:14:33;;;;;;;18.87;13.03;;;;;;;0.08;64.34;100533.13;1730116;81;21215;-66
2022/02/04 14:17:39;;;;;;;21.12;14.95;;;;;;;0.13;64.41;100540.41;1730559;83;21180;-66
2022/02/04 14:20:49;;;;;;;19.98;13.28;;;;;;;0.17;64.35;100550.01;1709652;81;21552;-65
2022/02/04 14:24:00;;;;;;;17.35;12.78;;;;;;;0.18;64.45;100547.68;1744932;82;21184;-66
2022/02/04 14:27:05;;;;;;;21.07;13.15;;;;;;;0.21;64.58;100552.84;1747310;81;21247;-66
2022/02/04 14:30:17;;;;;;;18.37;12.43;;;;;;;0.24;64.70;100551.80;1719343;82;21663;-66
2022/02/04 14:34:05;;;;;;;20.27;12.95;;;;;;;0.19;64.75;100553.43;1742911;82;21579;-67
2022/02/04 14:36:35;;;;;;;22.87;14.68;;;;;;;0.16;64.94;100565.76;1747323;81;21176;-66
2022/02/04 14:49:22;;;;;;;25.70;15.65;;;;;;;0.10;65.08;100576.95;1734662;82;21690;-66
2022/02/04 14:53:05;;;;;;;21.70;14.98;;;;;;;-0.25;66.08;100573.09;1735316;82;21169;-66
2022/02/04 15:02:26;;;;;;;24.63;15.50;;;;;;;-0.33;67.02;100586.20;1737050;82;21195;-66
2022/02/04 15:05:31;;;;;;;29.45;15.10;;;;;;;-0.38;67.24;100589.70;1737564;81;21946;-66
2022/02/04 15:08:40;;;;;;;40.10;18.85;;;;;;;-0.44;67.42;100595.46;1735517;81;21346;-66
2022/02/04 15:11:47;;;;;;;37.45;17.98;;;;;;;-0.51;67.69;100596.34;1707399;84;21194;-66
2022/02/04 15:14:54;;;;;;;33.33;17.95;;;;;;;-0.59;67.92;100609.45;1735707;82;21240;-66
2022/02/04 15:17:59;;;;;;;44.70;18.90;;;;;;;-0.63;68.22;100607.04;1737697;82;21432;-66
2022/02/04 15:21:15;;;;;;;36.48;17.85;;;;;;;-0.67;68.43;100614.94;1737952;82;21326;-66
2022/02/04 15:24:18;;;;;;;29.20;16.30;;;;;;;-0.69;68.67;100619.55;1724063;81;21325;-66
2022/02/04 15:27:26;;;;;;;24.50;16.10;;;;;;;-0.74;68.85;100624.34;1736228;82;21854;-66
2022/02/04 15:30:36;;;;;;;24.52;14.45;;;;;;;-0.80;69.08;100626.09;1736521;82;21363;-65
2022/02/04 15:33:39;;;;;;;27.55;16.10;;;;;;;-0.81;69.26;100633.28;1736973;81;21342;-66
2022/02/04 15:36:48;;;;;;;31.73;16.60;;;;;;;-0.82;69.32;100630.69;1733702;82;21185;-65
2022/02/04 15:39:55;;;;;;;27.37;14.55;;;;;;;-0.83;69.36;100635.70;1734865;82;21362;-66
2022/02/04 15:43:04;;;;;;;24.18;14.23;;;;;;;-0.90;69.44;100629.84;1739293;81;21741;-68
2022/02/04 15:52:56;;;;;;;21.12;14.23;;;;;;;-1.02;69.83;100641.38;1742680;81;21342;-67
2022/02/04 15:59:53;;;;;;;23.05;14.53;;;;;;;-1.03;70.22;100650.37;1743487;81;21342;-66
2022/02/04 16:02:47;;;;;;;23.62;14.35;;;;;;;-1.03;70.25;100638.30;1742587;81;21226;-66
2022/02/04 16:05:43;;;;;;;22.85;15.48;;;;;;;-1.04;70.36;100652.70;1742260;81;21973;-65
2022/02/04 16:08:49;;;;;;;23.02;14.98;;;;;;;-1.10;70.34;100650.40;1744777;81;21183;-66
2022/02/04 16:12:18;;;;;;;22.60;14.75;;;;;;;-1.14;70.55;100656.06;1742541;81;21377;-66
2022/02/04 16:18:53;;;;;;;26.45;15.72;;;;;;;-1.19;70.63;100660.35;1741668;81;21687;-66
2022/02/04 16:25:55;;;;;;;30.35;17.07;;;;;;;-1.19;70.88;100666.22;1701652;82;21571;-65
2022/02/04 16:31:32;;;;;;;25.35;16.82;;;;;;;-1.21;71.00;100660.08;1733196;82;21164;-65
2022/02/04 16:34:38;;;;;;;27.65;15.32;;;;;;;-1.18;71.10;100654.51;1740767;82;21279;-65
2022/02/04 16:37:51;;;;;;;29.60;15.35;;;;;;;-1.17;71.10;100669.69;1742259;82;21168;-65
2022/02/04 16:40:56;;;;;;;23.27;14.45;;;;;;;-1.23;71.11;100671.38;1742838;82;21377;-65
2022/02/04 16:44:01;;;;;;;23.87;15.08;;;;;;;-1.26;71.23;100672.92;1750332;80;21599;-66
2022/02/04 16:47:08;;;;;;;23.95;15.68;;;;;;;-1.22;71.43;100687.90;1741304;81;21190;-66
2022/02/04 16:50:21;;;;;;;23.05;15.18;;;;;;;-1.19;71.41;100690.39;1718987;82;21231;-67
2022/02/04 16:53:24;;;;;;;28.60;16.37;;;;;;;-1.19;71.39;100685.86;1725215;82;21195;-65
2022/02/04 16:56:30;;;;;;;24.55;16.00;;;;;;;-1.19;71.36;100678.31;1710343;83;21291;-66
2022/02/04 16:59:36;;;;;;;21.33;14.60;;;;;;;-1.20;71.31;100680.59;1730813;83;21340;-65
2022/02/04 17:02:43;;;;;;;23.10;15.50;;;;;;;-1.28;71.31;100680.23;1686805;83;21730;-65
2022/02/04 17:05:53;;;;;;;23.80;15.72;;;;;;;-1.27;71.40;100681.94;1680896;85;21227;-65
2022/02/04 17:09:09;;;;;;;26.80;16.20;;;;;;;-1.27;71.42;100685.50;1681481;85;21386;-65
2022/02/04 17:12:09;;;;;;;21.60;13.95;;;;;;;-1.28;71.39;100682.41;1681567;85;21359;-66
2022/02/04 17:15:17;;;;;;;22.22;15.15;;;;;;;-1.23;71.41;100683.00;1682103;85;21289;-64
2022/02/04 17:18:25;;;;;;;20.30;14.28;;;;;;;-1.19;71.30;100685.02;1681870;85;21426;-65
2022/02/04 17:21:34;;;;;;;24.07;14.40;;;;;;;-1.16;71.20;100682.14;1682073;85;21484;-65
2022/02/04 17:24:40;;;;;;;20.15;13.75;;;;;;;-1.20;71.08;100679.24;1654732;86;21233;-65
2022/02/04 17:27:50;;;;;;;21.97;14.25;;;;;;;-1.25;70.99;100691.61;1683404;85;21410;-64
2022/02/04 17:30:55;;;;;;;23.20;15.25;;;;;;;-1.33;70.98;100680.48;1677004;85;21247;-65
2022/02/04 17:34:01;;;;;;;27.42;17.55;;;;;;;-1.40;71.14;100690.35;1721128;82;21868;-64
2022/02/04 17:37:08;;;;;;;24.80;16.20;;;;;;;-1.42;71.34;100684.20;1721112;83;21725;-65
2022/02/04 17:40:19;;;;;;;23.02;15.18;;;;;;;-1.41;71.46;100687.30;1721154;82;21751;-65
2022/02/04 17:43:26;;;;;;;24.67;15.05;;;;;;;-1.41;71.55;100685.95;1721360;83;21380;-65
2022/02/04 17:46:35;;;;;;;26.12;16.52;;;;;;;-1.42;71.53;100689.10;1705502;83;21223;-66
2022/02/04 17:49:51;;;;;;;23.87;15.78;;;;;;;-1.42;71.65;100699.84;1708928;82;21280;-64
2022/02/04 17:52:58;;;;;;;24.50;15.70;;;;;;;-1.39;71.69;100696.97;1731908;82;21914;-65
2022/02/04 17:56:04;;;;;;;22.60;14.07;;;;;;;-1.39;71.71;100696.97;1728037;82;21373;-65
2022/02/04 17:59:19;;;;;;;22.90;15.85;;;;;;;-1.35;71.79;100698.53;1734021;81;21346;-65
2022/02/04 18:02:36;;;;;;;22.82;14.85;;;;;;;-1.26;71.83;100682.31;1734509;82;21322;-65
2022/02/04 18:05:56;;;;;;;25.60;16.95;;;;;;;-1.17;71.68;100684.45;1735000;81;21358;-65
2022/02/04 18:08:50;;;;;;;22.48;14.45;;;;;;;-1.11;71.49;100690.78;1734493;81;21581;-65
2022/02/04 18:11:56;;;;;;;20.90;14.03;;;;;;;-1.08;71.32;100688.78;1734240;82;21366;-65
2022/02/04 18:15:03;;;;;;;22.32;14.58;;;;;;;-1.06;71.21;100692.71;1734363;81;21197;-65
2022/02/04 18:18:12;;;;;;;20.12;13.98;;;;;;;-1.05;71.07;100685.02;1733708;82;21184;-64
2022/02/04 18:21:19;;;;;;;19.12;13.20;;;;;;;-1.01;71.13;100687.89;1734144;82;21677;-66
2022/02/04 18:24:26;;;;;;;21.87;13.70;;;;;;;-1.00;70.96;100697.20;1734223;81;21326;-64
2022/02/04 18:27:32;;;;;;;21.68;14.40;;;;;;;-1.00;70.81;100693.67;1734176;82;21299;-64
2022/02/04 18:30:38;;;;;;;19.70;13.20;;;;;;;-1.00;70.83;100693.67;1733868;81;21385;-65
2022/02/04 18:33:44;;;;;;;21.40;13.85;;;;;;;-0.93;70.87;100700.36;1734324;81;21319;-65
2022/02/04 18:36:53;;;;;;;19.62;13.13;;;;;;;-0.87;70.75;100700.84;1734553;82;21369;-66
2022/02/04 18:49:56;;;;;;;20.52;13.75;;;;;;;-0.71;70.10;100706.98;1731960;81;21597;-65
2022/02/04 18:53:11;;;;;;;20.77;14.15;;;;;;;-0.69;69.83;100706.89;1732830;82;21191;-64
2022/02/04 18:56:31;;;;;;;21.45;14.15;;;;;;;-0.74;69.84;100706.31;1712807;83;21251;-65
2022/02/04 18:59:24;;;;;;;19.05;13.10;;;;;;;-0.75;69.80;100713.53;1732291;81;21220;-65
2022/02/04 19:02:31;;;;;;;21.02;13.62;;;;;;;-0.79;69.70;100711.11;1732319;83;21717;-65
2022/02/04 19:05:43;;;;;;;20.37;13.13;;;;;;;-0.89;69.68;100716.70;1731816;81;21223;-65
2022/02/04 19:09:04;;;;;;;20.27;13.25;;;;;;;-0.93;69.93;100720.52;1731729;81;21196;-65
2022/02/04 19:12:02;;;;;;;21.10;14.13;;;;;;;-0.93;70.03;100719.17;1703276;84;21263;-65
2022/02/04 19:18:54;;;;;;;20.08;13.95;;;;;;;-0.83;70.22;100710.93;1705044;83;21463;-65
2022/02/04 19:21:58;;;;;;;23.98;16.30;;;;;;;-0.81;70.16;100710.36;1715005;83;21220;-65
2022/02/04 19:25:00;;;;;;;27.42;17.98;;;;;;;-0.74;70.05;100715.25;1720612;82;21380;-65
2022/02/04 19:28:06;;;;;;;23.25;15.75;;;;;;;-0.72;69.80;100720.52;1720146;83;21349;-65
2022/02/04 19:31:13;;;;;;;28.42;17.98;;;;;;;-0.78;69.67;100717.76;1720676;83;21214;-65
2022/02/04 19:34:19;;;;;;;20.55;14.15;;;;;;;-0.85;69.62;100712.84;1721816;82;21375;-64
2022/02/04 19:37:29;;;;;;;22.50;13.20;;;;;;;-0.88;69.77;100718.41;1721652;83;21363;-66
2022/02/04 19:40:38;;;;;;;25.08;18.32;;;;;;;-0.89;69.86;100721.60;1721772;82;21822;-64
2022/02/04 19:43:49;;;;;;;27.35;15.45;;;;;;;-0.87;69.83;100728.22;1721514;82;21897;-64
2022/02/04 19:47:01;;;;;;;23.75;15.15;;;;;;;-0.88;69.79;100727.81;1716296;82;21350;-65
2022/02/04 19:50:15;;;;;;;24.75;15.78;;;;;;;-0.86;69.91;100727.25;1705162;83;21199;-66